createdAt,value
2022-09-24T00:02:16.724Z,79.51
2022-09-24T00:04:44.750Z,79.34
2022-09-24T00:07:14.099Z,79.63
2022-09-24T00:09:42.284Z,80.05
2022-09-24T00:12:13.030Z,79.78
2022-09-24T00:14:41.144Z,79.72
2022-09-24T00:17:09.173Z,80.14
2022-09-24T00:19:37.164Z,80.70
2022-09-24T00:22:05.134Z,81.31
2022-09-24T00:24:48.370Z,81.61
2022-09-24T00:27:16.415Z,81.50
2022-09-24T00:29:44.354Z,80.84
2022-09-24T00:32:13.501Z,80.96
2022-09-24T00:34:41.526Z,81.23
2022-09-24T00:37:09.479Z,81.08
2022-09-24T00:39:39.824Z,81.41
2022-09-24T00:42:07.840Z,81.60
2022-09-24T00:44:59.656Z,82.49
2022-09-24T00:47:32.282Z,82.55
2022-09-24T00:50:17.638Z,83.45
2022-09-24T00:52:49.608Z,84.59
2022-09-24T00:55:21.164Z,84.69
2022-09-24T00:57:52.026Z,84.98
2022-09-24T01:00:20.513Z,84.92
2022-09-24T01:02:51.416Z,84.95
2022-09-24T01:05:19.595Z,84.84
2022-09-24T01:07:48.322Z,85.05
2022-09-24T01:10:40.331Z,85.46
2022-09-24T01:13:20.135Z,85.29
2022-09-24T01:15:55.757Z,85.66
2022-09-24T01:18:34.676Z,85.30
2022-09-24T01:21:25.507Z,83.99
2022-09-24T01:24:08.125Z,84.44
2022-09-24T01:26:53.044Z,84.80
2022-09-24T01:29:33.768Z,84.61
2022-09-24T01:32:07.522Z,84.94
2022-09-24T01:34:42.029Z,85.06
2022-09-24T01:37:10.372Z,84.20
2022-09-24T01:39:39.368Z,84.87
2022-09-24T01:42:09.380Z,85.05
2022-09-24T01:44:42.179Z,85.60
2022-09-24T01:47:12.403Z,85.41
2022-09-24T01:49:40.412Z,85.63
2022-09-24T01:52:11.800Z,85.92
2022-09-24T01:54:50.889Z,86.34
2022-09-24T01:57:24.295Z,86.68
2022-09-24T01:59:58.752Z,85.47
2022-09-24T02:02:31.786Z,85.85
2022-09-24T02:05:04.381Z,86.15
2022-09-24T02:07:40.416Z,86.55
2022-09-24T02:10:16.005Z,86.59
2022-09-24T02:12:47.783Z,87.55
2022-09-24T02:15:23.056Z,88.30
2022-09-24T02:17:56.319Z,88.61
2022-09-24T02:20:27.271Z,89.28
2022-09-24T02:22:59.040Z,88.73
2022-09-24T02:25:32.143Z,88.75
2022-09-24T02:28:00.702Z,87.51
2022-09-24T02:30:34.322Z,87.29
2022-09-24T02:33:02.453Z,86.74
2022-09-24T02:35:29.662Z,86.95
2022-09-24T02:37:57.596Z,87.25
2022-09-24T02:40:25.744Z,87.26
2022-09-24T02:42:53.757Z,87.68
2022-09-24T02:45:21.812Z,88.34
2022-09-24T02:47:51.245Z,88.51
2022-09-24T02:50:19.175Z,88.74
2022-09-24T02:52:47.093Z,88.85
2022-09-24T02:55:15.191Z,89.45
2022-09-24T02:57:43.173Z,89.53
2022-09-24T03:00:12.663Z,89.68
2022-09-24T03:02:40.704Z,89.31
2022-09-24T03:05:11.094Z,89.24
2022-09-24T03:07:39.046Z,89.13
2022-09-24T03:10:08.237Z,89.32
2022-09-24T03:12:36.298Z,89.79
2022-09-24T03:15:05.032Z,90.35
2022-09-24T03:17:33.409Z,90.20
2022-09-24T03:20:01.414Z,90.51
2022-09-24T03:22:30.762Z,90.26
2022-09-24T03:24:58.700Z,90.90
2022-09-24T03:27:26.708Z,91.38
2022-09-24T03:30:12.007Z,91.95
2022-09-24T03:32:40.731Z,92.26
2022-09-24T03:35:10.721Z,92.74
2022-09-24T03:37:47.021Z,92.73
2022-09-24T03:40:17.062Z,93.26
2022-09-24T03:42:45.040Z,93.85
2022-09-24T03:45:12.991Z,94.29
2022-09-24T03:47:42.775Z,94.11
2022-09-24T03:50:11.670Z,94.55
2022-09-24T03:52:41.164Z,94.25
2022-09-24T03:55:10.113Z,93.54
2022-09-24T03:57:38.136Z,93.04
2022-09-24T04:00:06.919Z,92.48
2022-09-24T04:02:34.970Z,92.46
2022-09-24T04:05:02.963Z,91.80
2022-09-24T04:07:30.942Z,91.53
2022-09-24T04:10:00.342Z,91.76
2022-09-24T04:12:29.755Z,91.93
2022-09-24T04:14:57.733Z,92.55
2022-09-24T04:17:31.567Z,92.81
2022-09-24T04:19:59.535Z,92.43
2022-09-24T04:22:28.025Z,91.93
2022-09-24T04:24:56.106Z,91.71
2022-09-24T04:27:25.865Z,91.49
2022-09-24T04:29:54.589Z,91.35
2022-09-24T04:32:22.956Z,91.23
2022-09-24T04:34:50.935Z,90.60
2022-09-24T04:37:18.945Z,90.37
2022-09-24T04:39:47.009Z,89.05
2022-09-24T04:42:18.543Z,88.88
2022-09-24T04:44:49.399Z,88.84
2022-09-24T04:47:19.764Z,88.07
2022-09-24T04:49:47.736Z,87.98
2022-09-24T04:52:16.224Z,88.32
2022-09-24T04:54:47.119Z,87.93
2022-09-24T04:57:16.297Z,88.34
2022-09-24T04:59:44.473Z,88.63
2022-09-24T05:02:13.954Z,88.39
2022-09-24T05:04:42.142Z,86.86
2022-09-24T05:07:10.718Z,86.83
2022-09-24T05:09:38.934Z,85.75
2022-09-24T05:12:07.852Z,85.01
2022-09-24T05:14:36.032Z,84.81
2022-09-24T05:17:04.043Z,85.43
2022-09-24T05:19:33.599Z,85.41
2022-09-24T05:22:01.574Z,85.40
2022-09-24T05:24:29.595Z,84.51
2022-09-24T05:27:11.565Z,84.64
2022-09-24T05:29:40.821Z,82.56
2022-09-24T05:32:11.086Z,82.25
2022-09-24T05:34:41.447Z,82.11
2022-09-24T05:37:09.712Z,81.42
2022-09-24T05:39:37.762Z,81.87
2022-09-24T05:42:05.851Z,82.10
2022-09-24T05:44:33.888Z,81.21
2022-09-24T05:47:01.967Z,80.79
2022-09-24T05:49:30.060Z,80.09
2022-09-24T05:51:59.522Z,78.93
2022-09-24T05:54:27.948Z,78.24
2022-09-24T05:56:56.048Z,77.69
2022-09-24T05:59:25.021Z,78.47
2022-09-24T06:01:54.577Z,78.11
2022-09-24T06:04:22.713Z,77.73
2022-09-24T06:06:51.114Z,76.48
2022-09-24T06:09:20.804Z,76.19
2022-09-24T06:11:51.327Z,76.16
2022-09-24T06:14:19.814Z,75.82
2022-09-24T06:16:48.148Z,75.02
2022-09-24T06:19:16.482Z,74.46
2022-09-24T06:21:44.569Z,70.99
2022-09-24T06:24:12.630Z,69.66
2022-09-24T06:26:42.015Z,70.50
2022-09-24T06:29:10.133Z,69.86
2022-09-24T06:31:38.404Z,68.21
2022-09-24T06:34:06.480Z,69.11
2022-09-24T06:36:36.248Z,69.27
2022-09-24T06:39:05.026Z,67.62
2022-09-24T06:41:33.094Z,64.14
2022-09-24T06:44:03.473Z,63.20
2022-09-24T06:46:31.497Z,62.69
2022-09-24T06:48:59.588Z,60.03
2022-09-24T06:51:27.574Z,58.88
2022-09-24T06:53:55.716Z,58.39
2022-09-24T06:56:23.727Z,57.77
2022-09-24T06:58:51.721Z,57.18
2022-09-24T07:01:21.320Z,55.87
2022-09-24T07:03:49.371Z,56.37
2022-09-24T07:06:17.416Z,55.98
2022-09-24T07:08:45.464Z,55.22
2022-09-24T07:11:15.480Z,55.28
2022-09-24T07:13:43.760Z,54.93
2022-09-24T07:16:11.936Z,55.83
2022-09-24T07:18:41.643Z,54.46
2022-09-24T07:21:09.741Z,54.55
2022-09-24T07:23:37.766Z,54.04
2022-09-24T07:26:06.010Z,52.79
2022-09-24T07:28:34.539Z,52.60
2022-09-24T07:31:03.023Z,53.14
2022-09-24T07:33:33.139Z,53.48
2022-09-24T07:36:06.771Z,51.97
2022-09-24T07:38:36.402Z,51.12
2022-09-24T07:41:08.061Z,51.08
2022-09-24T07:43:36.028Z,50.97
2022-09-24T07:46:07.288Z,50.58
2022-09-24T07:48:35.480Z,50.55
2022-09-24T07:51:06.364Z,49.04
2022-09-24T07:53:34.435Z,48.38
2022-09-24T07:56:03.964Z,48.53
2022-09-24T07:58:32.271Z,47.92
2022-09-24T08:01:00.589Z,47.93
2022-09-24T08:03:28.836Z,48.64
2022-09-24T08:05:58.787Z,47.90
2022-09-24T08:08:28.431Z,47.20
2022-09-24T08:10:56.704Z,46.44
2022-09-24T08:13:27.866Z,45.09
2022-09-24T08:16:00.345Z,43.80
2022-09-24T08:18:29.778Z,43.97
2022-09-24T08:20:57.896Z,42.51
2022-09-24T08:23:28.089Z,41.92
2022-09-24T08:25:58.010Z,40.57
2022-09-24T08:28:26.179Z,41.42
2022-09-24T08:30:54.935Z,40.29
2022-09-24T08:33:23.435Z,40.11
2022-09-24T08:35:52.595Z,39.29
2022-09-24T08:38:21.133Z,38.55
2022-09-24T08:40:59.263Z,39.20
2022-09-24T08:43:39.102Z,37.53
2022-09-24T08:46:34.291Z,37.71
2022-09-24T08:49:04.721Z,37.89
2022-09-24T08:51:40.952Z,37.17
2022-09-24T08:54:13.122Z,36.35
2022-09-24T08:56:45.294Z,37.58
2022-09-24T08:59:25.584Z,36.30
2022-09-24T09:02:06.588Z,36.49
2022-09-24T09:04:42.281Z,36.67
2022-09-24T09:07:19.869Z,33.47
2022-09-24T09:09:52.003Z,31.96
2022-09-24T09:12:24.975Z,31.77
2022-09-24T09:14:59.843Z,32.01
2022-09-24T09:17:33.794Z,32.37
2022-09-24T09:20:07.529Z,32.07
2022-09-24T09:22:42.568Z,33.24
2022-09-24T09:25:20.993Z,32.15
2022-09-24T09:27:59.534Z,32.81
2022-09-24T09:30:30.158Z,32.91
2022-09-24T09:33:13.984Z,32.45
2022-09-24T09:35:50.308Z,32.09
2022-09-24T09:38:24.070Z,32.13
2022-09-24T09:41:00.069Z,32.45
2022-09-24T09:43:30.490Z,32.47
2022-09-24T09:46:13.493Z,32.22
2022-09-24T09:48:47.510Z,31.64
2022-09-24T09:51:23.344Z,31.37
2022-09-24T09:54:03.898Z,31.73
2022-09-24T09:56:36.610Z,31.56
2022-09-24T09:59:09.199Z,31.07
2022-09-24T10:01:42.089Z,30.19
2022-09-24T10:04:28.651Z,30.41
2022-09-24T10:07:06.127Z,30.12
2022-09-24T10:09:34.601Z,31.21
2022-09-24T10:12:21.380Z,31.26
2022-09-24T10:15:00.382Z,30.80
2022-09-24T10:17:32.059Z,30.79
2022-09-24T10:20:02.839Z,29.92
2022-09-24T10:22:32.192Z,29.06
2022-09-24T10:25:02.366Z,29.20
2022-09-24T10:27:35.184Z,30.23
2022-09-24T10:30:31.413Z,30.62
2022-09-24T10:33:18.779Z,30.66
2022-09-24T10:35:47.154Z,29.08
2022-09-24T10:38:20.242Z,29.26
2022-09-24T10:40:49.040Z,28.91
2022-09-24T10:43:22.504Z,29.16
2022-09-24T10:46:08.815Z,29.17
2022-09-24T10:48:44.238Z,29.89
2022-09-24T10:51:29.005Z,29.37
2022-09-24T10:54:12.940Z,29.80
2022-09-24T10:56:46.763Z,29.49
2022-09-24T10:59:32.635Z,29.77
2022-09-24T11:02:29.092Z,29.37
2022-09-24T11:05:03.481Z,29.52
2022-09-24T11:07:59.657Z,29.41
2022-09-24T11:10:52.425Z,28.98
2022-09-24T11:13:26.858Z,28.96
2022-09-24T11:16:15.929Z,29.05
2022-09-24T11:18:58.150Z,29.15
2022-09-24T11:21:49.424Z,28.82
2022-09-24T11:24:38.697Z,28.82
2022-09-24T11:27:28.049Z,29.11
2022-09-24T11:30:08.337Z,28.38
2022-09-24T11:32:42.883Z,28.07
2022-09-24T11:35:41.849Z,28.82
2022-09-24T11:38:13.343Z,28.50
2022-09-24T11:41:02.462Z,28.21
2022-09-24T11:43:57.049Z,28.38
2022-09-24T11:46:39.782Z,28.07
2022-09-24T11:49:25.352Z,28.73
2022-09-24T11:52:02.349Z,27.81
2022-09-24T11:54:34.964Z,28.75
2022-09-24T11:57:13.036Z,28.56
2022-09-24T11:59:50.107Z,28.50
2022-09-24T12:02:25.173Z,27.32
2022-09-24T12:05:02.427Z,27.86
2022-09-24T12:07:38.172Z,28.60
2022-09-24T12:10:20.449Z,28.50
2022-09-24T12:12:51.618Z,28.16
2022-09-24T12:15:24.180Z,28.24
2022-09-24T12:17:58.329Z,28.52
2022-09-24T12:20:29.524Z,28.64
2022-09-24T12:23:04.261Z,27.62
2022-09-24T12:25:40.223Z,26.87
2022-09-24T12:28:13.367Z,27.46
2022-09-24T12:31:08.703Z,27.17
2022-09-24T12:33:46.930Z,27.66
2022-09-24T12:36:21.676Z,27.23
2022-09-24T12:38:55.011Z,27.49
2022-09-24T12:41:31.433Z,28.32
2022-09-24T12:44:05.269Z,27.57
2022-09-24T12:46:40.450Z,28.47
2022-09-24T12:49:20.859Z,27.47
2022-09-24T12:51:48.956Z,26.84
2022-09-24T12:54:29.583Z,27.30
2022-09-24T12:57:10.226Z,26.56
2022-09-24T12:59:49.391Z,27.42
2022-09-24T13:02:20.499Z,26.81
2022-09-24T13:05:04.472Z,26.24
2022-09-24T13:07:35.232Z,26.71
2022-09-24T13:10:26.535Z,27.63
2022-09-24T13:12:54.924Z,26.69
2022-09-24T13:15:28.870Z,26.47
2022-09-24T13:18:06.877Z,26.39
2022-09-24T13:20:37.667Z,25.95
2022-09-24T13:23:32.298Z,26.71
2022-09-24T13:26:05.063Z,27.62
2022-09-24T13:28:38.806Z,27.83
2022-09-24T13:31:23.848Z,27.29
2022-09-24T13:33:55.035Z,28.30
2022-09-24T13:36:31.263Z,28.65
2022-09-24T13:39:04.613Z,28.68
2022-09-24T13:41:44.115Z,28.67
2022-09-24T13:44:21.470Z,26.48
2022-09-24T13:46:55.556Z,26.60
2022-09-24T13:49:25.912Z,27.38
2022-09-24T13:52:06.393Z,27.48
2022-09-24T13:54:37.779Z,27.78
2022-09-24T13:57:14.017Z,28.05
2022-09-24T13:59:42.112Z,28.38
2022-09-24T14:02:27.680Z,28.11
2022-09-24T14:04:59.416Z,27.58
2022-09-24T14:07:28.820Z,28.40
2022-09-24T14:10:05.132Z,28.71
2022-09-24T14:12:34.906Z,28.48
2022-09-24T14:15:14.588Z,28.54
2022-09-24T14:17:42.626Z,29.42
2022-09-24T14:20:15.872Z,29.65
2022-09-24T14:22:47.595Z,29.37
2022-09-24T14:25:20.743Z,29.29
2022-09-24T14:27:52.712Z,29.19
2022-09-24T14:30:23.344Z,29.68
2022-09-24T14:32:55.945Z,29.93
2022-09-24T14:35:31.721Z,30.05
2022-09-24T14:38:06.728Z,29.10
2022-09-24T14:40:44.076Z,29.07
2022-09-24T14:43:27.381Z,29.45
2022-09-24T14:46:05.348Z,29.65
2022-09-24T14:48:35.703Z,29.65
2022-09-24T14:51:03.786Z,29.44
2022-09-24T14:53:34.837Z,28.93
2022-09-24T14:56:20.308Z,29.45
2022-09-24T14:58:49.764Z,29.34
2022-09-24T15:01:20.434Z,29.71
2022-09-24T15:03:51.673Z,29.44
2022-09-24T15:06:23.958Z,29.34
2022-09-24T15:09:00.637Z,29.87
2022-09-24T15:11:31.494Z,29.87
2022-09-24T15:14:03.305Z,29.93
2022-09-24T15:16:34.370Z,30.25
2022-09-24T15:19:20.654Z,30.36
2022-09-24T15:21:50.054Z,29.91
2022-09-24T15:24:18.463Z,30.50
2022-09-24T15:26:48.332Z,30.79
2022-09-24T15:29:24.942Z,30.99
2022-09-24T15:31:53.611Z,31.24
2022-09-24T15:34:22.166Z,31.64
2022-09-24T15:36:54.138Z,31.71
2022-09-24T15:39:23.431Z,31.99
2022-09-24T15:41:51.599Z,32.15
2022-09-24T15:44:27.179Z,32.53
2022-09-24T15:46:58.217Z,32.92
2022-09-24T15:49:26.491Z,33.23
2022-09-24T15:51:58.440Z,33.68
2022-09-24T15:54:26.565Z,33.93
2022-09-24T15:56:55.194Z,33.84
2022-09-24T15:59:24.847Z,34.14
2022-09-24T16:01:56.668Z,34.61
2022-09-24T16:04:25.220Z,34.79
2022-09-24T16:06:53.306Z,35.03
2022-09-24T16:09:21.407Z,35.47
2022-09-24T16:11:49.369Z,35.78
2022-09-24T16:14:17.396Z,35.95
2022-09-24T16:16:46.966Z,36.48
2022-09-24T16:19:14.902Z,36.92
2022-09-24T16:21:42.997Z,37.43
2022-09-24T16:24:11.004Z,37.44
2022-09-24T16:26:39.207Z,38.21
2022-09-24T16:29:10.494Z,38.20
2022-09-24T16:31:38.910Z,38.55
2022-09-24T16:34:08.442Z,38.99
2022-09-24T16:36:36.478Z,39.38
2022-09-24T16:39:05.535Z,39.87
2022-09-24T16:41:34.627Z,39.79
2022-09-24T16:44:03.055Z,39.93
2022-09-24T16:46:31.212Z,40.28
2022-09-24T16:48:59.375Z,40.57
2022-09-24T16:51:28.862Z,40.73
2022-09-24T16:53:58.270Z,41.04
2022-09-24T16:56:26.557Z,41.13
2022-09-24T16:58:54.548Z,41.24
2022-09-24T17:01:24.040Z,41.69
2022-09-24T17:03:53.316Z,41.86
2022-09-24T17:06:23.198Z,42.29
2022-09-24T17:09:10.707Z,42.94
2022-09-24T17:11:40.508Z,43.19
2022-09-24T17:14:09.111Z,43.15
2022-09-24T17:16:37.506Z,43.31
2022-09-24T17:19:08.040Z,43.54
2022-09-24T17:21:36.353Z,44.26
2022-09-24T17:24:06.280Z,44.56
2022-09-24T17:26:34.858Z,44.87
2022-09-24T17:29:03.132Z,45.08
2022-09-24T17:31:31.581Z,45.19
2022-09-24T17:34:01.251Z,45.69
2022-09-24T17:36:31.077Z,45.90
2022-09-24T17:38:59.445Z,45.86
2022-09-24T17:41:30.311Z,45.93
2022-09-24T17:43:59.815Z,46.25
2022-09-24T17:46:30.264Z,46.76
2022-09-24T17:48:59.920Z,46.50
2022-09-24T17:51:32.671Z,46.84
2022-09-24T17:54:02.266Z,47.86
2022-09-24T17:56:34.541Z,47.79
2022-09-24T17:59:02.839Z,48.02
2022-09-24T18:01:36.044Z,47.93
2022-09-24T18:04:07.176Z,47.99
2022-09-24T18:06:38.476Z,48.04
2022-09-24T18:09:07.137Z,48.38
2022-09-24T18:11:41.032Z,48.70
2022-09-24T18:14:14.266Z,49.78
2022-09-24T18:16:43.550Z,49.61
2022-09-24T18:19:15.186Z,50.30
2022-09-24T18:21:44.048Z,50.91
2022-09-24T18:24:12.723Z,50.75
2022-09-24T18:26:43.407Z,50.73
2022-09-24T18:29:15.890Z,51.08
2022-09-24T18:31:44.956Z,51.03
2022-09-24T18:34:15.789Z,51.32
2022-09-24T18:36:46.039Z,51.63
2022-09-24T18:39:23.911Z,50.88
2022-09-24T18:41:57.642Z,50.93
2022-09-24T18:44:26.534Z,50.84
2022-09-24T18:46:54.705Z,50.65
2022-09-24T18:49:28.315Z,49.72
2022-09-24T18:51:56.929Z,49.89
2022-09-24T18:54:26.648Z,49.62
2022-09-24T18:56:56.769Z,49.25
2022-09-24T18:59:26.121Z,48.87
2022-09-24T19:01:54.823Z,48.76
2022-09-24T19:04:23.817Z,48.45
2022-09-24T19:06:51.938Z,48.53
2022-09-24T19:09:21.149Z,48.64
2022-09-24T19:11:49.966Z,48.59
2022-09-24T19:14:19.757Z,48.43
2022-09-24T19:16:48.664Z,48.24
2022-09-24T19:19:17.450Z,48.06
2022-09-24T19:21:48.737Z,48.70
2022-09-24T19:24:16.974Z,49.59
2022-09-24T19:26:45.502Z,50.37
2022-09-24T19:29:14.177Z,51.33
2022-09-24T19:31:49.796Z,52.05
2022-09-24T19:34:21.036Z,52.96
2022-09-24T19:37:05.755Z,53.57
2022-09-24T19:39:34.100Z,53.88
2022-09-24T19:42:02.380Z,54.11
2022-09-24T19:44:30.754Z,54.75
2022-09-24T19:47:03.433Z,55.18
2022-09-24T19:49:32.011Z,56.04
2022-09-24T19:52:00.057Z,56.07
2022-09-24T19:54:28.656Z,56.24
2022-09-24T19:56:57.495Z,56.47
2022-09-24T19:59:25.822Z,57.17
2022-09-24T20:01:56.183Z,58.32
2022-09-24T20:04:25.789Z,57.84
2022-09-24T20:06:54.936Z,56.89
2022-09-24T20:09:23.140Z,57.33
2022-09-24T20:11:52.454Z,58.40
2022-09-24T20:14:22.703Z,59.49
2022-09-24T20:16:50.989Z,59.77
2022-09-24T20:19:20.270Z,59.75
2022-09-24T20:21:49.939Z,60.09
2022-09-24T20:24:17.990Z,59.76
2022-09-24T20:27:03.813Z,59.90
2022-09-24T20:29:31.929Z,59.49
2022-09-24T20:32:00.048Z,59.75
2022-09-24T20:34:33.887Z,60.26
2022-09-24T20:37:05.680Z,60.79
2022-09-24T20:39:34.022Z,61.13
2022-09-24T20:42:03.861Z,61.08
2022-09-24T20:44:32.417Z,60.67
2022-09-24T20:47:00.758Z,61.19
2022-09-24T20:49:30.045Z,61.80
2022-09-24T20:51:58.571Z,61.99
2022-09-24T20:54:29.173Z,62.61
2022-09-24T20:56:57.495Z,62.82
2022-09-24T20:59:26.757Z,63.12
2022-09-24T21:01:55.443Z,63.14
2022-09-24T21:04:34.870Z,64.00
2022-09-24T21:07:03.094Z,62.80
2022-09-24T21:09:32.679Z,63.25
2022-09-24T21:12:01.516Z,63.91
2022-09-24T21:14:29.745Z,64.81
2022-09-24T21:16:57.918Z,64.24
2022-09-24T21:19:25.907Z,64.37
2022-09-24T21:21:53.988Z,65.65
2022-09-24T21:24:25.140Z,67.53
2022-09-24T21:26:59.290Z,67.60
2022-09-24T21:29:27.269Z,68.60
2022-09-24T21:31:55.276Z,69.16
2022-09-24T21:34:23.321Z,68.83
2022-09-24T21:36:53.161Z,69.07
2022-09-24T21:39:23.820Z,69.44
2022-09-24T21:41:53.739Z,69.86
2022-09-24T21:44:23.130Z,69.89
2022-09-24T21:46:52.730Z,70.24
2022-09-24T21:49:21.368Z,70.78
2022-09-24T21:51:49.524Z,69.59
2022-09-24T21:54:19.318Z,69.51
2022-09-24T21:56:47.755Z,70.07
2022-09-24T21:59:34.000Z,70.15
2022-09-24T22:02:03.631Z,69.68
2022-09-24T22:04:33.468Z,69.99
2022-09-24T22:07:01.701Z,69.72
2022-09-24T22:09:29.924Z,70.40
2022-09-24T22:12:00.230Z,70.66
2022-09-24T22:14:28.872Z,71.07
2022-09-24T22:16:57.587Z,71.24
2022-09-24T22:19:27.156Z,71.70
2022-09-24T22:21:55.358Z,71.28
2022-09-24T22:24:23.532Z,71.49
2022-09-24T22:26:51.551Z,72.34
2022-09-24T22:29:19.542Z,72.63
2022-09-24T22:31:47.557Z,72.92
2022-09-24T22:34:41.296Z,73.85
2022-09-24T22:37:11.199Z,73.77
2022-09-24T22:39:39.150Z,74.21
2022-09-24T22:42:07.843Z,74.50
2022-09-24T22:44:35.841Z,74.42
2022-09-24T22:47:03.890Z,74.46
2022-09-24T22:49:32.754Z,74.29
2022-09-24T22:52:00.793Z,74.47
2022-09-24T22:54:30.648Z,74.45
2022-09-24T22:56:58.707Z,74.50
2022-09-24T22:59:26.728Z,74.38
2022-09-24T23:01:54.797Z,74.54
2022-09-24T23:04:22.940Z,75.50
2022-09-24T23:06:51.019Z,75.01
2022-09-24T23:09:20.647Z,74.93
2022-09-24T23:11:50.148Z,74.68
2022-09-24T23:14:18.268Z,75.52
2022-09-24T23:16:46.835Z,75.90
2022-09-24T23:19:17.543Z,76.48
2022-09-24T23:21:46.367Z,77.13
2022-09-24T23:24:16.018Z,77.54
2022-09-24T23:26:44.727Z,77.84
2022-09-24T23:29:15.130Z,78.18
2022-09-24T23:31:43.288Z,79.02
2022-09-24T23:34:13.631Z,79.46
2022-09-24T23:36:42.590Z,79.49
2022-09-24T23:39:11.365Z,80.03
2022-09-24T23:41:39.362Z,80.73
2022-09-24T23:44:07.639Z,80.68
2022-09-24T23:46:37.087Z,80.98
2022-09-24T23:49:05.542Z,81.11
2022-09-24T23:51:33.674Z,81.24
2022-09-24T23:54:01.683Z,81.38
2022-09-24T23:56:29.789Z,81.43
2022-09-24T23:58:58.296Z,81.69
